Time;durP1;ratioP1;P1;durP2;ratioP2;P2;SDS_P1;SDS_P2;PMS_P1;PMS_P2;Temp;Humidity;BMP_temperature;BMP_pressure;BME280_temperature;BME280_humidity;BME280_pressure;Samples;Min_cycle;Max_cycle;Signal;HPM_P1;HPM_P2
2022/10/26 00:00:30;;;;;;;6.05;3.70;;;;;;;9.27;100.00;93081.09;2126988;27;20035;-70
2022/10/26 00:01:31;;;;;;;10.25;4.15;;;;;;;9.50;100.00;93085.63;2127068;27;20034;-70
2022/10/26 00:02:32;;;;;;;5.75;3.58;;;;;;;9.40;100.00;93083.91;2126984;27;20067;-71
2022/10/26 00:03:34;;;;;;;4.93;3.50;;;;;;;9.31;100.00;93070.34;2126271;27;20031;-70
2022/10/26 00:04:35;;;;;;;7.57;3.88;;;;;;;9.27;100.00;93078.41;2126990;27;20034;-70
2022/10/26 00:05:36;;;;;;;4.38;3.10;;;;;;;9.27;100.00;93080.34;2127238;27;20027;-71
2022/10/26 00:06:37;;;;;;;4.78;3.47;;;;;;;9.28;100.00;93082.59;2127014;27;20050;-70
2022/10/26 00:07:38;;;;;;;8.55;3.47;;;;;;;9.28;100.00;93085.25;2127043;27;20030;-71
2022/10/26 00:08:39;;;;;;;8.45;3.72;;;;;;;9.28;100.00;93079.16;2126599;27;20097;-70
2022/10/26 00:09:40;;;;;;;10.07;3.90;;;;;;;9.25;100.00;93071.97;2127124;27;20027;-70
2022/10/26 00:10:41;;;;;;;6.30;4.07;;;;;;;9.26;100.00;93078.81;2126563;27;20046;-71
2022/10/26 00:11:42;;;;;;;4.50;3.42;;;;;;;9.25;100.00;93082.63;2127147;27;20372;-70
2022/10/26 00:12:49;;;;;;;7.78;4.40;;;;;;;9.28;100.00;93089.84;2126813;27;20022;-71
2022/10/26 00:13:50;;;;;;;6.90;3.75;;;;;;;9.29;100.00;93088.66;2126943;27;20494;-71
2022/10/26 00:14:51;;;;;;;8.52;4.53;;;;;;;9.29;100.00;93080.66;2126951;27;20058;-70
2022/10/26 00:15:53;;;;;;;3.92;3.47;;;;;;;9.34;100.00;93080.19;2126743;27;20384;-70
2022/10/26 00:16:54;;;;;;;5.70;3.60;;;;;;;9.57;100.00;93074.09;2128215;27;20058;-70
2022/10/26 00:17:55;;;;;;;4.60;3.10;;;;;;;9.59;100.00;93077.09;2126814;27;20031;-71
2022/10/26 00:18:56;;;;;;;8.85;3.20;;;;;;;9.56;100.00;93073.31;2128629;27;20476;-71
2022/10/26 00:19:59;;;;;;;7.85;3.38;;;;;;;9.51;100.00;93065.78;2127155;27;20581;-70
2022/10/26 00:21:04;;;;;;;5.90;3.08;;;;;;;9.49;100.00;93068.13;2122911;27;20235;-71
2022/10/26 00:22:05;;;;;;;10.80;3.47;;;;;;;9.43;100.00;93061.72;2127035;27;20048;-71
2022/10/26 00:23:06;;;;;;;7.07;3.15;;;;;;;9.41;100.00;93056.06;2126454;27;20100;-71
2022/10/26 00:24:07;;;;;;;5.60;3.40;;;;;;;9.44;100.00;93055.25;2129607;27;20424;-71
2022/10/26 00:25:08;;;;;;;6.13;2.90;;;;;;;9.42;100.00;93046.91;2126987;27;20027;-71
2022/10/26 00:26:10;;;;;;;4.70;2.80;;;;;;;9.44;100.00;93046.47;2126987;27;20114;-71
2022/10/26 00:27:11;;;;;;;5.82;3.35;;;;;;;9.42;100.00;93038.13;2129138;27;20537;-71
2022/10/26 00:28:12;;;;;;;8.00;3.33;;;;;;;9.46;100.00;93047.59;2127333;27;20058;-71
2022/10/26 00:29:12;;;;;;;5.95;3.17;;;;;;;9.49;100.00;93051.34;2126831;27;20026;-70
2022/10/26 00:30:13;;;;;;;9.85;3.20;;;;;;;9.51;100.00;93046.34;2126507;27;20050;-70
2022/10/26 00:31:15;;;;;;;5.80;2.92;;;;;;;9.51;100.00;93054.34;2117896;27;20114;-70
2022/10/26 00:32:16;;;;;;;7.80;3.30;;;;;;;9.47;100.00;93057.09;2117944;27;20058;-71
2022/10/26 00:33:17;;;;;;;7.82;3.30;;;;;;;9.42;100.00;93052.22;2126277;27;20061;-71
2022/10/26 00:34:18;;;;;;;4.85;3.10;;;;;;;9.39;100.00;93049.63;2126294;27;20035;-70
2022/10/26 00:35:19;;;;;;;6.38;3.13;;;;;;;9.39;100.00;93052.28;2126770;27;20453;-70
2022/10/26 00:36:21;;;;;;;4.40;3.42;;;;;;;9.42;100.00;93049.56;2126961;27;20050;-71
2022/10/26 00:37:22;;;;;;;5.40;3.13;;;;;;;9.38;100.00;93054.19;2126903;27;20027;-71
2022/10/26 00:38:23;;;;;;;5.80;3.05;;;;;;;9.39;100.00;93053.03;2129973;27;20083;-70
2022/10/26 00:39:24;;;;;;;8.27;3.40;;;;;;;9.36;100.00;93053.88;2126787;27;20034;-70
2022/10/26 00:40:28;;;;;;;5.40;3.50;;;;;;;9.36;100.00;93056.53;2126269;27;20019;-70
2022/10/26 00:41:32;;;;;;;8.45;3.15;;;;;;;9.35;100.00;93063.03;2129056;27;20380;-70
2022/10/26 00:42:33;;;;;;;6.03;3.05;;;;;;;9.40;100.00;93069.81;2126931;27;20053;-70
2022/10/26 00:43:36;;;;;;;7.53;2.90;;;;;;;9.38;100.00;93064.88;2126186;27;20108;-70
2022/10/26 00:44:54;;;;;;;5.85;2.92;;;;;;;9.34;100.00;93059.59;2126860;27;20496;-71
2022/10/26 00:45:58;;;;;;;8.85;3.20;;;;;;;9.32;100.00;93071.84;2123915;27;20046;-70
2022/10/26 00:46:59;;;;;;;4.05;3.00;;;;;;;9.31;100.00;93067.69;2126832;27;20360;-70
2022/10/26 00:48:09;;;;;;;8.20;3.40;;;;;;;9.28;100.00;93068.50;2126837;27;20030;-70
2022/10/26 00:49:15;;;;;;;4.15;2.97;;;;;;;9.30;100.00;93068.81;2126380;27;20372;-70
2022/10/26 00:50:21;;;;;;;5.82;2.83;;;;;;;9.30;100.00;93071.50;2126656;27;20030;-71
2022/10/26 00:51:27;;;;;;;6.28;2.78;;;;;;;9.27;100.00;93062.41;2128528;27;20061;-70
2022/10/26 00:52:28;;;;;;;2.78;2.58;;;;;;;9.26;100.00;93060.91;2126889;27;20038;-70
2022/10/26 00:53:31;;;;;;;5.03;3.20;;;;;;;9.27;100.00;93062.41;2126395;27;20342;-71
2022/10/26 00:54:32;;;;;;;4.35;3.20;;;;;;;9.25;100.00;93062.06;2126147;27;20030;-71
2022/10/26 00:55:44;;;;;;;9.15;3.38;;;;;;;9.24;100.00;93057.13;2125992;27;20118;-70
2022/10/26 00:56:48;;;;;;;5.95;2.80;;;;;;;9.24;100.00;93049.13;2126210;27;20042;-70
2022/10/26 00:57:52;;;;;;;7.13;3.22;;;;;;;9.24;100.00;93054.47;2126477;27;20029;-71
2022/10/26 00:58:54;;;;;;;6.82;3.30;;;;;;;9.24;100.00;93057.88;2127190;27;20027;-70
2022/10/26 00:59:57;;;;;;;9.48;3.92;;;;;;;9.23;100.00;93053.72;2126296;27;20037;-70
2022/10/26 01:00:58;;;;;;;6.68;3.40;;;;;;;9.21;100.00;93056.03;2126135;27;20476;-70
2022/10/26 01:01:59;;;;;;;8.07;3.28;;;;;;;9.23;100.00;93053.72;2126696;27;20023;-70
2022/10/26 01:03:04;;;;;;;4.95;3.30;;;;;;;9.25;100.00;93063.97;2126382;27;20027;-70
2022/10/26 01:04:05;;;;;;;13.02;4.38;;;;;;;9.22;100.00;93062.88;2126640;27;20411;-70
2022/10/26 01:05:06;;;;;;;8.25;3.33;;;;;;;9.20;100.00;93062.53;2126358;27;20031;-70
2022/10/26 01:06:09;;;;;;;3.92;3.28;;;;;;;9.21;100.00;93056.03;2116959;27;20516;-70
2022/10/26 01:07:10;;;;;;;8.20;3.50;;;;;;;9.20;100.00;93062.53;2118092;27;20370;-71
2022/10/26 01:08:13;;;;;;;6.47;3.50;;;;;;;9.20;100.00;93053.78;2126723;27;20028;-70
2022/10/26 01:09:15;;;;;;;8.98;3.60;;;;;;;9.19;100.00;93057.59;2126691;27;20028;-71
2022/10/26 01:10:17;;;;;;;4.43;3.20;;;;;;;9.20;100.00;93054.53;2121650;27;20019;-70
2022/10/26 01:11:18;;;;;;;6.72;3.65;;;;;;;9.19;100.00;93052.28;2117404;27;20106;-70
2022/10/26 01:12:19;;;;;;;5.53;3.63;;;;;;;9.20;100.00;93054.53;2130397;27;20030;-71
2022/10/26 01:13:20;;;;;;;5.53;3.58;;;;;;;9.19;100.00;93042.34;2126112;27;20646;-70
2022/10/26 01:14:23;;;;;;;3.38;3.08;;;;;;;9.19;100.00;93039.69;2126558;27;20445;-71
2022/10/26 01:15:37;;;;;;;5.47;2.95;;;;;;;9.18;100.00;93048.09;2125955;27;20109;-70
2022/10/26 01:17:00;;;;;;;4.32;3.08;;;;;;;9.14;100.00;93034.84;2127119;27;20034;-71
2022/10/26 01:18:27;;;;;;;7.30;3.17;;;;;;;9.12;100.00;93033.72;2126553;27;20022;-70
2022/10/26 01:19:56;;;;;;;7.63;3.28;;;;;;;9.08;100.00;93031.88;2126607;27;20038;-70
2022/10/26 01:21:24;;;;;;;3.67;2.65;;;;;;;9.05;100.00;93027.38;2126415;27;20091;-70
2022/10/26 01:22:34;;;;;;;4.10;3.03;;;;;;;9.06;100.00;93036.13;2123757;27;20035;-71
2022/10/26 01:24:08;;;;;;;3.58;3.05;;;;;;;9.02;100.00;93033.50;2126092;27;20079;-70
2022/10/26 01:25:24;;;;;;;8.32;3.05;;;;;;;8.98;100.00;93029.41;2126397;27;20429;-70
2022/10/26 01:27:02;;;;;;;6.35;3.00;;;;;;;8.96;100.00;93031.72;2126404;27;20110;-70
2022/10/26 01:28:16;;;;;;;7.35;2.97;;;;;;;8.99;100.00;93039.63;2126462;27;20095;-70
2022/10/26 01:29:54;;;;;;;3.92;2.75;;;;;;;9.03;100.00;93040.34;2126338;27;20817;-70
2022/10/26 01:30:59;;;;;;;7.47;2.70;;;;;;;9.11;100.00;93042.88;2126242;27;20034;-70
2022/10/26 01:32:11;;;;;;;7.78;2.88;;;;;;;9.03;100.00;93052.91;2126310;27;20042;-71
2022/10/26 01:33:43;;;;;;;4.00;3.00;;;;;;;8.98;100.00;93050.72;2126002;27;20115;-70
2022/10/26 01:34:51;;;;;;;5.13;3.40;;;;;;;8.90;100.00;93052.75;2114116;27;20038;-71
2022/10/26 01:35:55;;;;;;;5.88;2.97;;;;;;;8.73;100.00;93059.84;2126423;27;20038;-71
2022/10/26 01:37:03;;;;;;;5.32;2.80;;;;;;;8.71;100.00;93061.44;2126502;27;20027;-70
2022/10/26 01:38:26;;;;;;;3.58;3.00;;;;;;;8.68;100.00;93056.91;2128186;27;20475;-70
2022/10/26 01:39:52;;;;;;;4.53;2.92;;;;;;;8.61;100.00;93062.38;2126288;27;20490;-71
2022/10/26 01:41:10;;;;;;;3.53;2.80;;;;;;;8.59;100.00;93065.41;2125863;27;20034;-70
2022/10/26 01:42:15;;;;;;;6.18;2.90;;;;;;;8.56;100.00;93067.00;2126268;27;20027;-70
2022/10/26 01:43:18;;;;;;;5.60;2.95;;;;;;;8.54;100.00;93069.28;2125620;27;20138;-70
2022/10/26 01:44:29;;;;;;;3.88;2.90;;;;;;;8.52;100.00;93071.63;2126273;27;20345;-70
2022/10/26 01:45:33;;;;;;;7.43;2.97;;;;;;;8.58;100.00;93070.00;2128436;27;20046;-70
2022/10/26 01:46:38;;;;;;;4.32;2.53;;;;;;;8.61;100.00;93067.69;2125954;27;20027;-70
2022/10/26 01:47:40;;;;;;;3.10;2.80;;;;;;;8.62;100.00;93061.94;2126328;27;20079;-71
2022/10/26 01:48:43;;;;;;;3.78;2.67;;;;;;;8.60;100.00;93058.94;2125852;27;20039;-71
2022/10/26 01:49:49;;;;;;;5.97;3.67;;;;;;;8.61;100.00;93062.38;2126224;27;20034;-70
2022/10/26 01:50:53;;;;;;;8.77;3.13;;;;;;;8.61;100.00;93059.69;2122476;27;20053;-70
2022/10/26 01:51:54;;;;;;;9.18;3.20;;;;;;;8.65;100.00;93057.72;2125462;27;20462;-70
2022/10/26 01:52:56;;;;;;;6.63;3.30;;;;;;;8.65;100.00;93057.72;2126275;27;20116;-70
2022/10/26 01:53:57;;;;;;;3.63;3.00;;;;;;;8.63;100.00;93062.69;2125994;27;20095;-70
2022/10/26 01:55:32;;;;;;;4.45;2.85;;;;;;;8.63;100.00;93057.38;2126223;27;20027;-70
2022/10/26 01:56:39;;;;;;;4.20;2.92;;;;;;;8.66;100.00;93061.91;2126263;27;20062;-70
2022/10/26 01:57:40;;;;;;;8.13;3.00;;;;;;;8.64;100.00;93056.97;2126203;27;20070;-70
2022/10/26 01:58:59;;;;;;;4.35;2.58;;;;;;;8.67;100.00;93060.75;2126167;27;20031;-70
2022/10/26 02:00:10;;;;;;;5.45;2.80;;;;;;;8.67;100.00;93064.16;2126216;27;20060;-71
2022/10/26 02:01:14;;;;;;;7.75;2.47;;;;;;;8.70;100.00;93068.69;2126411;27;20685;-70
2022/10/26 02:02:39;;;;;;;10.20;3.40;;;;;;;8.76;100.00;93075.06;2126155;27;20038;-71
2022/10/26 02:04:10;;;;;;;9.15;2.50;;;;;;;8.82;100.00;93075.34;2116095;27;20043;-70
2022/10/26 02:05:35;;;;;;;4.72;2.40;;;;;;;8.77;100.00;93087.22;2109005;27;20041;-70
2022/10/26 02:07:10;;;;;;;4.70;2.30;;;;;;;8.76;100.00;93076.97;2126224;27;20496;-70
2022/10/26 02:08:15;;;;;;;4.35;2.00;;;;;;;8.78;100.00;93082.63;2126119;27;20023;-70
2022/10/26 02:09:18;;;;;;;2.58;2.25;;;;;;;8.80;100.00;93083.75;2125951;27;20027;-70
2022/10/26 02:10:32;;;;;;;7.25;2.35;;;;;;;8.81;100.00;93082.59;2125771;27;20039;-70
2022/10/26 02:11:41;;;;;;;3.35;2.08;;;;;;;8.79;100.00;93082.25;2126232;27;20465;-70
2022/10/26 02:13:07;;;;;;;5.05;2.15;;;;;;;8.81;100.00;93089.81;2126141;27;20571;-70
2022/10/26 02:14:12;;;;;;;4.85;2.10;;;;;;;8.83;100.00;93092.84;2129319;27;20030;-70
2022/10/26 02:15:19;;;;;;;6.38;2.22;;;;;;;8.83;100.00;93090.19;2125629;27;20109;-70
2022/10/26 02:16:31;;;;;;;4.05;2.05;;;;;;;8.82;100.00;93096.66;2113498;28;20027;-70
2022/10/26 02:17:38;;;;;;;6.72;2.45;;;;;;;8.88;100.00;93095.06;2109195;28;20454;-70
2022/10/26 02:18:51;;;;;;;5.60;2.30;;;;;;;8.90;100.00;93099.97;2109086;28;20023;-70
2022/10/26 02:20:01;;;;;;;3.53;1.90;;;;;;;8.88;100.00;93102.31;2104830;28;20048;-70
2022/10/26 02:21:09;;;;;;;8.35;2.38;;;;;;;8.88;100.00;93097.72;2109166;28;20098;-70
2022/10/26 02:22:22;;;;;;;7.25;2.20;;;;;;;8.87;100.00;93106.88;2109133;28;20026;-70
2022/10/26 02:23:27;;;;;;;7.15;1.95;;;;;;;8.83;100.00;93106.94;2104486;28;20027;-71
2022/10/26 02:24:32;;;;;;;5.75;2.00;;;;;;;8.93;100.00;93118.59;2109217;28;20479;-70
2022/10/26 02:25:39;;;;;;;6.15;2.20;;;;;;;8.95;100.00;93110.16;2108760;28;20036;-70
2022/10/26 02:26:43;;;;;;;10.55;1.90;;;;;;;9.08;100.00;93111.84;2110577;28;20028;-70
2022/10/26 02:27:49;;;;;;;5.75;2.28;;;;;;;9.11;100.00;93106.88;2109412;28;20081;-70
2022/10/26 02:28:55;;;;;;;3.50;1.67;;;;;;;9.10;100.00;93114.13;2104716;28;20070;-70
2022/10/26 02:29:58;;;;;;;3.78;1.60;;;;;;;9.11;100.00;93109.56;2109066;28;20035;-70
2022/10/26 02:31:01;;;;;;;3.08;1.70;;;;;;;9.09;100.00;93107.31;2108666;28;20028;-70
2022/10/26 02:32:07;;;;;;;3.25;1.80;;;;;;;9.10;100.00;93119.47;2109268;28;20035;-71
2022/10/26 02:33:11;;;;;;;3.13;1.70;;;;;;;9.13;100.00;93113.34;2108178;28;20036;-70
2022/10/26 02:34:17;;;;;;;6.95;1.80;;;;;;;9.12;100.00;93124.38;2108684;28;20054;-71
2022/10/26 02:35:24;;;;;;;3.83;1.83;;;;;;;9.16;100.00;93128.50;2104737;28;20441;-70
2022/10/26 02:36:30;;;;;;;9.95;2.05;;;;;;;9.17;100.00;93123.91;2107017;28;20081;-70
2022/10/26 02:37:34;;;;;;;5.22;2.25;;;;;;;9.22;100.00;93121.56;2109059;28;20412;-70
2022/10/26 02:38:38;;;;;;;3.25;1.48;;;;;;;9.24;100.00;93127.22;2109902;28;20034;-71
2022/10/26 02:39:41;;;;;;;9.05;1.80;;;;;;;9.29;100.00;93118.75;2108216;28;20028;-70
2022/10/26 02:40:43;;;;;;;3.25;1.50;;;;;;;9.30;100.00;93128.25;2108947;28;20117;-71
2022/10/26 02:41:46;;;;;;;3.55;1.45;;;;;;;9.37;100.00;93129.31;2112599;28;20027;-70
2022/10/26 02:42:50;;;;;;;4.47;1.80;;;;;;;9.45;100.00;93123.44;2104930;28;20032;-70
2022/10/26 02:44:04;;;;;;;2.47;1.40;;;;;;;9.58;100.00;93121.69;2105083;28;20054;-70
2022/10/26 02:45:12;;;;;;;1.85;1.20;;;;;;;9.65;100.00;93125.38;2108103;28;20087;-71
2022/10/26 02:46:17;;;;;;;3.38;1.60;;;;;;;9.66;100.00;93117.00;2100348;28;20115;-70
2022/10/26 02:47:19;;;;;;;3.10;1.40;;;;;;;9.74;100.00;93110.34;2108690;28;20024;-70
2022/10/26 02:48:22;;;;;;;3.35;1.30;;;;;;;9.79;100.00;93114.47;2109116;28;20383;-70
2022/10/26 02:49:23;;;;;;;2.20;1.30;;;;;;;9.78;100.00;93110.28;2108752;28;20039;-70
2022/10/26 02:50:37;;;;;;;5.95;1.60;;;;;;;9.79;100.00;93103.78;2109059;28;20420;-70
2022/10/26 02:52:02;;;;;;;6.72;1.52;;;;;;;9.82;100.00;93108.28;2108807;28;20031;-70
2022/10/26 02:53:30;;;;;;;1.38;1.20;;;;;;;9.88;100.00;93104.00;2104697;28;20027;-70
2022/10/26 02:54:43;;;;;;;8.68;1.67;;;;;;;9.93;100.00;93100.84;2109037;28;20110;-70
2022/10/26 02:55:49;;;;;;;3.20;1.33;;;;;;;9.90;100.00;93103.56;2112435;28;20570;-70
2022/10/26 02:56:59;;;;;;;3.55;1.10;;;;;;;9.91;100.00;93105.81;2107746;28;20334;-70
2022/10/26 02:58:06;;;;;;;4.90;1.38;;;;;;;9.84;100.00;93106.72;2109037;28;20058;-70
2022/10/26 02:59:10;;;;;;;5.03;1.60;;;;;;;9.87;100.00;93105.13;2109183;28;20121;-71
2022/10/26 03:00:15;;;;;;;5.20;1.50;;;;;;;9.82;100.00;93101.03;2108871;28;20493;-71
2022/10/26 03:01:16;;;;;;;4.47;1.27;;;;;;;9.88;100.00;93105.88;2109087;28;20020;-71
2022/10/26 03:02:19;;;;;;;3.35;1.35;;;;;;;9.87;100.00;93104.38;2105273;28;20523;-71
2022/10/26 03:03:21;;;;;;;4.68;1.50;;;;;;;9.84;100.00;93097.97;2112426;28;20097;-70
2022/10/26 03:04:31;;;;;;;4.45;1.45;;;;;;;9.81;100.00;93098.78;2108834;28;20074;-70
2022/10/26 03:05:32;;;;;;;4.88;1.40;;;;;;;9.75;100.00;93097.75;2108787;28;20031;-71
2022/10/26 03:06:33;;;;;;;2.80;1.20;;;;;;;9.77;100.00;93092.75;2111299;28;20135;-70
2022/10/26 03:07:34;;;;;;;4.03;1.13;;;;;;;9.79;100.00;93096.53;2112156;28;20486;-70
2022/10/26 03:08:35;;;;;;;5.53;1.80;;;;;;;9.85;100.00;93094.13;2108986;28;20063;-70
2022/10/26 03:09:36;;;;;;;8.10;1.33;;;;;;;9.76;100.00;93088.59;2108870;28;20032;-70
2022/10/26 03:10:42;;;;;;;3.30;1.45;;;;;;;9.72;100.00;93088.66;2110135;28;20381;-70
2022/10/26 03:11:43;;;;;;;4.93;1.40;;;;;;;9.83;100.00;93096.44;2109033;28;20374;-70
2022/10/26 03:12:44;;;;;;;2.92;1.50;;;;;;;9.83;100.00;93083.88;2108548;28;20111;-70
2022/10/26 03:13:48;;;;;;;7.30;1.60;;;;;;;9.84;100.00;93089.97;2112739;28;20072;-70
2022/10/26 03:14:49;;;;;;;5.93;1.38;;;;;;;9.81;100.00;93085.44;2112533;28;20042;-70
2022/10/26 03:15:54;;;;;;;5.35;1.38;;;;;;;9.70;100.00;93076.88;2117607;27;20041;-71
2022/10/26 03:16:55;;;;;;;2.38;1.83;;;;;;;9.63;100.00;93072.44;2127032;27;20029;-70
2022/10/26 03:17:56;;;;;;;5.65;1.67;;;;;;;9.69;100.00;93070.78;2125845;27;20074;-70
2022/10/26 03:18:57;;;;;;;7.90;1.45;;;;;;;9.65;100.00;93072.75;2125508;27;20027;-70
2022/10/26 03:19:59;;;;;;;3.47;1.42;;;;;;;9.61;100.00;93060.66;2117998;27;20055;-70
2022/10/26 03:21:00;;;;;;;3.40;1.75;;;;;;;9.56;100.00;93061.88;2118184;27;20123;-70
2022/10/26 03:22:01;;;;;;;3.92;1.60;;;;;;;9.50;100.00;93066.19;2127574;27;20060;-70
2022/10/26 03:23:02;;;;;;;1.83;1.13;;;;;;;9.56;100.00;93075.22;2127096;27;20035;-70
2022/10/26 03:24:03;;;;;;;4.43;1.40;;;;;;;9.62;100.00;93081.59;2124609;27;20031;-70
2022/10/26 03:25:04;;;;;;;6.47;1.30;;;;;;;9.62;100.00;93083.53;2127397;27;20027;-70
2022/10/26 03:26:05;;;;;;;6.90;1.45;;;;;;;9.58;100.00;93080.91;2127258;27;20038;-70
2022/10/26 03:27:06;;;;;;;6.43;1.65;;;;;;;9.55;100.00;93095.81;2130252;27;20022;-70
2022/10/26 03:28:08;;;;;;;6.65;2.03;;;;;;;9.70;100.00;93100.88;2128704;27;20062;-70
2022/10/26 03:29:08;;;;;;;4.13;1.40;;;;;;;9.66;100.00;93113.53;2126976;27;20080;-70
2022/10/26 03:30:10;;;;;;;3.65;1.67;;;;;;;9.57;100.00;93103.44;2127438;27;20031;-70
2022/10/26 03:31:11;;;;;;;4.18;1.67;;;;;;;9.52;100.00;93109.22;2130822;27;20043;-69
2022/10/26 03:32:12;;;;;;;7.53;1.63;;;;;;;9.53;100.00;93116.84;2127489;27;20022;-70
2022/10/26 03:33:13;;;;;;;3.25;1.85;;;;;;;9.54;100.00;93113.00;2127119;27;20030;-70
2022/10/26 03:34:15;;;;;;;5.20;2.38;;;;;;;9.57;100.00;93124.78;2128189;27;20183;-70
2022/10/26 03:35:15;;;;;;;4.82;1.60;;;;;;;9.58;100.00;93124.38;2127361;27;20025;-70
2022/10/26 03:36:17;;;;;;;2.90;1.67;;;;;;;9.53;100.00;93111.50;2127187;27;20133;-70
2022/10/26 03:37:18;;;;;;;4.93;1.88;;;;;;;9.55;100.00;93117.16;2127300;27;20079;-70
2022/10/26 03:38:19;;;;;;;8.10;1.88;;;;;;;9.47;100.00;93105.09;2127364;27;20023;-70
2022/10/26 03:39:20;;;;;;;4.95;1.52;;;;;;;9.48;100.00;93119.97;2126795;27;20030;-70
2022/10/26 03:40:21;;;;;;;6.07;1.73;;;;;;;9.51;100.00;93113.81;2127310;27;20061;-70
2022/10/26 03:41:22;;;;;;;5.07;1.60;;;;;;;9.53;100.00;93116.84;2127228;27;20049;-70
2022/10/26 03:42:23;;;;;;;5.10;1.70;;;;;;;9.57;100.00;93111.44;2127202;27;20027;-70
2022/10/26 03:43:24;;;;;;;7.88;1.75;;;;;;;9.53;100.00;93111.50;2127043;27;20449;-70
2022/10/26 03:44:25;;;;;;;5.20;1.98;;;;;;;9.54;100.00;93107.66;2126773;27;20055;-70
2022/10/26 03:45:26;;;;;;;2.95;1.77;;;;;;;9.56;100.00;93108.00;2124385;27;20031;-70
2022/10/26 03:46:27;;;;;;;3.70;1.60;;;;;;;9.57;100.00;93108.78;2127383;27;20031;-70
2022/10/26 03:47:27;;;;;;;3.65;1.67;;;;;;;9.55;100.00;93113.75;2127149;27;20481;-70
2022/10/26 03:48:28;;;;;;;8.90;2.05;;;;;;;9.49;100.00;93110.81;2125701;27;20106;-71
2022/10/26 03:49:29;;;;;;;4.97;1.85;;;;;;;9.49;100.00;93107.38;2126625;27;20042;-70
2022/10/26 03:50:30;;;;;;;3.38;1.83;;;;;;;9.47;100.00;93107.78;2127202;27;20141;-70
2022/10/26 03:51:31;;;;;;;5.13;1.67;;;;;;;9.49;100.00;93110.81;2127296;27;20030;-70
2022/10/26 03:52:32;;;;;;;6.10;1.70;;;;;;;9.49;100.00;93108.13;2126972;27;20026;-70
2022/10/26 03:53:33;;;;;;;6.15;2.67;;;;;;;9.44;100.00;93108.63;2126894;27;20037;-71
2022/10/26 03:54:34;;;;;;;10.02;1.67;;;;;;;9.42;100.00;93104.84;2128012;27;20054;-71
2022/10/26 03:55:35;;;;;;;4.07;1.48;;;;;;;9.47;100.00;93104.34;2128691;27;20655;-71
2022/10/26 03:56:36;;;;;;;10.20;1.55;;;;;;;9.45;100.00;93112.03;2127188;27;20341;-70
2022/10/26 03:57:44;;;;;;;3.88;1.50;;;;;;;9.42;100.00;93105.59;2126998;27;20874;-70
2022/10/26 03:58:45;;;;;;;6.97;1.40;;;;;;;9.42;100.00;93110.16;2127255;27;20398;-70
2022/10/26 03:59:46;;;;;;;4.30;1.67;;;;;;;9.42;100.00;93120.84;2127104;27;20057;-70
2022/10/26 04:00:47;;;;;;;2.10;1.30;;;;;;;9.46;100.00;93114.28;2126610;27;20015;-70
2022/10/26 04:01:48;;;;;;;7.22;1.42;;;;;;;9.45;100.00;93123.44;2127328;27;20131;-70
2022/10/26 04:02:57;;;;;;;3.67;1.30;;;;;;;9.49;100.00;93126.06;2127022;27;20030;-70
2022/10/26 04:03:58;;;;;;;3.03;1.20;;;;;;;9.51;100.00;93121.06;2126909;27;20072;-70
2022/10/26 04:04:59;;;;;;;4.00;1.30;;;;;;;9.55;100.00;93119.09;2127071;27;20034;-71
2022/10/26 04:06:01;;;;;;;4.55;1.40;;;;;;;9.52;100.00;93115.31;2126644;27;20038;-70
2022/10/26 04:07:02;;;;;;;9.05;1.40;;;;;;;9.49;100.00;93121.47;2127186;27;20023;-70
2022/10/26 04:08:04;;;;;;;6.82;1.65;;;;;;;9.48;100.00;93119.97;2126955;27;20033;-70
2022/10/26 04:09:07;;;;;;;7.13;1.40;;;;;;;9.51;100.00;93113.81;2127075;27;20018;-69
2022/10/26 04:10:09;;;;;;;4.25;1.60;;;;;;;9.50;100.00;93112.31;2127232;27;20510;-70
2022/10/26 04:11:09;;;;;;;4.97;1.58;;;;;;;9.50;100.00;93117.63;2129943;27;20033;-70
2022/10/26 04:12:10;;;;;;;2.42;1.27;;;;;;;9.56;100.00;93120.59;2127203;27;20109;-70
2022/10/26 04:13:11;;;;;;;5.40;1.60;;;;;;;9.61;100.00;93108.69;2126709;27;20105;-70
2022/10/26 04:14:12;;;;;;;4.47;1.40;;;;;;;9.57;100.00;93116.78;2126853;27;20027;-70
2022/10/26 04:15:14;;;;;;;7.13;1.45;;;;;;;9.56;100.00;93118.66;2127005;27;20038;-70
2022/10/26 04:16:15;;;;;;;16.60;1.63;;;;;;;9.59;100.00;93117.09;2125877;27;20540;-70
2022/10/26 04:17:16;;;;;;;2.33;1.55;;;;;;;9.67;100.00;93117.75;2127022;27;20027;-70
2022/10/26 04:18:17;;;;;;;9.07;1.95;;;;;;;9.72;100.00;93115.34;2117205;27;20064;-70
2022/10/26 04:19:18;;;;;;;3.33;1.67;;;;;;;9.73;100.00;93116.09;2117137;27;20050;-70
2022/10/26 04:20:19;;;;;;;8.23;1.70;;;;;;;9.87;100.00;93113.16;2126976;27;20037;-71
2022/10/26 04:21:20;;;;;;;3.78;1.80;;;;;;;9.88;100.00;93121.91;2126398;27;20465;-70
2022/10/26 04:22:21;;;;;;;3.80;1.40;;;;;;;9.84;100.00;93114.75;2127022;27;20039;-71
2022/10/26 04:23:22;;;;;;;3.38;1.50;;;;;;;9.86;100.00;93116.25;2126558;27;20061;-70
2022/10/26 04:24:23;;;;;;;5.68;1.83;;;;;;;9.88;100.00;93106.66;2117740;27;20046;-71
2022/10/26 04:25:24;;;;;;;7.93;1.83;;;;;;;9.82;100.00;93106.38;2117836;27;20088;-70
2022/10/26 04:26:25;;;;;;;4.43;1.20;;;;;;;9.82;100.00;93108.28;2126681;27;20034;-70
2022/10/26 04:27:26;;;;;;;4.85;1.60;;;;;;;9.80;100.00;93105.28;2129815;27;20037;-70
2022/10/26 04:28:26;;;;;;;5.40;1.90;;;;;;;9.78;100.00;93111.03;2126978;27;20034;-70
2022/10/26 04:29:27;;;;;;;2.67;1.77;;;;;;;9.75;100.00;93105.78;2126100;27;20081;-70
2022/10/26 04:30:29;;;;;;;3.90;1.63;;;;;;;9.73;100.00;93105.41;2122451;27;20034;-73
2022/10/26 04:31:30;;;;;;;5.55;1.70;;;;;;;9.70;100.00;93101.66;2126126;27;20042;-70
2022/10/26 04:32:31;;;;;;;3.22;1.60;;;;;;;9.74;100.00;93098.91;2123945;27;20442;-70
2022/10/26 04:33:32;;;;;;;19.38;2.22;;;;;;;9.77;100.00;93103.44;2125580;27;20041;-69
2022/10/26 04:34:33;;;;;;;5.80;1.98;;;;;;;9.79;100.00;93093.88;2126686;27;20053;-70
2022/10/26 04:35:34;;;;;;;4.75;2.08;;;;;;;9.84;100.00;93096.06;2125928;27;20091;-69
2022/10/26 04:36:35;;;;;;;5.65;1.40;;;;;;;9.79;100.00;93095.78;2126676;27;20027;-70
2022/10/26 04:37:36;;;;;;;8.05;1.52;;;;;;;9.76;100.00;93108.03;2126090;27;20027;-71
2022/10/26 04:38:37;;;;;;;4.55;1.50;;;;;;;9.73;100.00;93094.75;2124844;27;20149;-70
2022/10/26 04:39:38;;;;;;;5.47;1.60;;;;;;;9.70;100.00;93100.88;2126636;27;20041;-73
2022/10/26 04:40:39;;;;;;;5.50;1.58;;;;;;;9.69;100.00;93094.06;2122972;27;20035;-71
2022/10/26 04:41:40;;;;;;;3.70;1.63;;;;;;;9.69;100.00;93094.06;2126134;27;20030;-71
2022/10/26 04:42:45;;;;;;;5.85;1.77;;;;;;;9.69;100.00;93097.47;2126976;27;20039;-71
2022/10/26 04:43:46;;;;;;;5.25;2.03;;;;;;;9.64;100.00;93102.53;2126579;27;20150;-73
2022/10/26 04:44:47;;;;;;;4.90;1.73;;;;;;;9.65;100.00;93102.13;2126589;27;20023;-72
2022/10/26 04:45:48;;;;;;;2.05;1.40;;;;;;;9.65;100.00;93104.03;2128649;27;20034;-71
2022/10/26 04:46:49;;;;;;;3.35;1.73;;;;;;;9.68;100.00;93111.22;2127012;27;20054;-71
2022/10/26 04:48:00;;;;;;;3.08;1.38;;;;;;;9.72;100.00;93119.94;2126822;27;20065;-71
2022/10/26 04:49:01;;;;;;;5.05;1.40;;;;;;;9.83;100.00;93104.44;2126220;27;20647;-69
2022/10/26 04:50:03;;;;;;;3.10;1.40;;;;;;;9.82;100.00;93106.38;2128752;27;20030;-72
2022/10/26 04:51:03;;;;;;;2.53;1.60;;;;;;;9.80;100.00;93107.97;2127027;27;20030;-71
2022/10/26 04:52:05;;;;;;;5.63;1.63;;;;;;;9.83;100.00;93110.56;2126312;27;20121;-71
2022/10/26 04:53:08;;;;;;;5.82;1.40;;;;;;;9.83;100.00;93104.44;2125607;27;20023;-72
2022/10/26 04:54:09;;;;;;;4.70;1.50;;;;;;;9.81;100.00;93107.53;2126788;27;20026;-70
2022/10/26 04:55:09;;;;;;;3.83;1.55;;;;;;;9.78;100.00;93113.69;2117257;27;20022;-70
2022/10/26 04:56:10;;;;;;;5.22;1.80;;;;;;;9.79;100.00;93109.88;2117673;27;20042;-70
2022/10/26 04:57:11;;;;;;;3.75;1.63;;;;;;;9.90;100.00;93108.91;2126537;27;20114;-71
2022/10/26 04:58:12;;;;;;;3.72;1.67;;;;;;;9.85;100.00;93107.47;2126158;27;20023;-71
2022/10/26 04:59:13;;;;;;;4.13;1.42;;;;;;;9.83;100.00;93112.47;2127216;27;20563;-71
2022/10/26 05:00:15;;;;;;;3.63;1.33;;;;;;;10.03;100.00;93118.56;2126620;27;20037;-70
2022/10/26 05:01:16;;;;;;;5.05;1.48;;;;;;;9.94;100.00;93105.00;2126417;27;20461;-70
2022/10/26 05:02:17;;;;;;;7.32;1.65;;;;;;;9.91;100.00;93105.06;2126648;27;20035;-71
2022/10/26 05:03:19;;;;;;;4.65;1.40;;;;;;;9.93;100.00;93110.78;2127130;27;20540;-73
2022/10/26 05:04:20;;;;;;;7.90;1.80;;;;;;;9.96;100.00;93118.69;2117623;27;20035;-72
2022/10/26 05:05:21;;;;;;;4.15;2.05;;;;;;;9.89;100.00;93116.16;2117704;27;20396;-70